createdAt,value
2018-12-27T00:00:51.393Z,100952.00
2018-12-27T00:03:21.807Z,100956.59
2018-12-27T00:05:52.121Z,100946.99
2018-12-27T00:08:22.896Z,100955.16
2018-12-27T00:10:53.190Z,100954.58
2018-12-27T00:13:42.300Z,100957.10
2018-12-27T00:16:12.664Z,100959.69
2018-12-27T00:18:42.982Z,100965.41
2018-12-27T00:21:13.396Z,100954.48
2018-12-27T00:26:54.087Z,100948.28
2018-12-27T00:32:42.988Z,100955.24
2018-12-27T00:35:32.249Z,100949.84
2018-12-27T00:38:02.712Z,100956.86
2018-12-27T00:40:33.074Z,100949.16
2018-12-27T00:46:21.174Z,100946.20
2018-12-27T00:48:52.142Z,100951.92
2018-12-27T00:51:33.726Z,100944.75
2018-12-27T00:54:04.063Z,100940.83
2018-12-27T00:56:34.968Z,100930.57
2018-12-27T00:59:05.444Z,100930.95
2018-12-27T01:01:35.768Z,100923.41
2018-12-27T01:04:06.447Z,100925.52
2018-12-27T01:06:37.013Z,100923.41
2018-12-27T01:09:07.894Z,100916.34
2018-12-27T01:11:38.311Z,100912.02
2018-12-27T01:14:09.375Z,100913.25
2018-12-27T01:16:39.592Z,100917.17
2018-12-27T01:19:28.866Z,100925.91
2018-12-27T01:21:59.208Z,100910.52
2018-12-27T01:24:29.599Z,100907.84
2018-12-27T01:30:13.426Z,100909.85
2018-12-27T01:32:43.867Z,100914.30
2018-12-27T01:35:14.291Z,100906.18
2018-12-27T01:38:03.606Z,100912.53
2018-12-27T01:40:33.975Z,100921.84
2018-12-27T01:43:04.792Z,100924.70
2018-12-27T01:45:53.991Z,100928.00
2018-12-27T01:48:24.368Z,100919.41
2018-12-27T01:50:54.833Z,100919.59
2018-12-27T01:53:25.498Z,100923.37
2018-12-27T01:55:55.944Z,100924.79
2018-12-27T01:58:26.246Z,100916.06
2018-12-27T02:07:15.299Z,100918.58
2018-12-27T02:10:04.403Z,100916.40
2018-12-27T02:12:34.891Z,100908.10
2018-12-27T02:15:05.328Z,100909.22
2018-12-27T02:17:35.784Z,100904.30
2018-12-27T02:20:25.029Z,100906.34
2018-12-27T02:22:55.358Z,100896.67
2018-12-27T02:25:25.663Z,100894.01
2018-12-27T02:27:56.158Z,100897.33
2018-12-27T02:30:26.628Z,100892.29
2018-12-27T02:32:57.056Z,100893.45
2018-12-27T02:35:27.577Z,100881.66
2018-12-27T02:37:57.907Z,100884.96
2018-12-27T02:40:28.161Z,100879.66
2018-12-27T02:42:58.565Z,100869.54
2018-12-27T02:45:29.003Z,100874.61
2018-12-27T02:47:59.342Z,100883.25
2018-12-27T02:50:48.603Z,100878.31
2018-12-27T02:53:19.131Z,100881.76
2018-12-27T02:55:49.453Z,100879.86
2018-12-27T03:01:12.205Z,100879.91
2018-12-27T03:03:43.999Z,100883.95
2018-12-27T03:06:14.768Z,100888.53
2018-12-27T03:08:45.342Z,100891.70
2018-12-27T03:11:15.850Z,100886.44
2018-12-27T03:13:46.259Z,100894.75
2018-12-27T03:16:16.744Z,100884.19
2018-12-27T03:18:47.606Z,100896.34
2018-12-27T03:21:18.361Z,100884.63
2018-12-27T03:23:49.349Z,100896.77
2018-12-27T03:26:19.689Z,100892.28
2018-12-27T03:28:50.508Z,100896.14
2018-12-27T03:31:20.877Z,100900.30
2018-12-27T03:33:52.897Z,100904.31
2018-12-27T03:36:23.418Z,100900.83
2018-12-27T03:38:53.887Z,100912.09
2018-12-27T03:41:24.299Z,100899.21
2018-12-27T03:44:13.358Z,100908.66
2018-12-27T03:46:43.784Z,100908.09
2018-12-27T03:49:14.095Z,100906.36
2018-12-27T03:51:44.541Z,100906.08
2018-12-27T03:54:14.934Z,100907.00
2018-12-27T03:56:45.334Z,100911.34
2018-12-27T03:59:15.980Z,100909.62
2018-12-27T04:02:05.497Z,100915.30
2018-12-27T04:04:35.921Z,100913.69
2018-12-27T04:07:06.280Z,100912.92
2018-12-27T04:09:36.734Z,100920.71
2018-12-27T04:21:04.568Z,100919.52
2018-12-27T04:26:45.051Z,100931.87
2018-12-27T04:29:15.477Z,100928.44
2018-12-27T04:32:24.553Z,100937.44
2018-12-27T04:38:04.867Z,100928.64
2018-12-27T04:40:35.230Z,100916.62
2018-12-27T04:46:29.263Z,100932.17
2018-12-27T04:52:14.400Z,100937.05
2018-12-27T05:03:36.666Z,100942.79
2018-12-27T05:08:52.060Z,100952.88
2018-12-27T05:11:22.349Z,100946.47
2018-12-27T05:13:52.626Z,100965.38
2018-12-27T05:16:41.729Z,100961.19
2018-12-27T05:19:30.935Z,100971.11
2018-12-27T05:28:04.840Z,100979.81
2018-12-27T05:30:35.156Z,100995.38
2018-12-27T05:33:05.413Z,100991.59
2018-12-27T05:38:29.617Z,100996.92
2018-12-27T05:41:20.233Z,101000.80
2018-12-27T05:44:09.295Z,101013.88
2018-12-27T05:46:59.698Z,101019.16
2018-12-27T05:49:48.768Z,101014.94
2018-12-27T05:52:19.248Z,101028.82
2018-12-27T05:57:33.651Z,101030.15
2018-12-27T06:00:04.016Z,101041.23
2018-12-27T06:05:30.302Z,101046.28
2018-12-27T06:08:00.593Z,101044.39
2018-12-27T06:10:30.910Z,101049.80
2018-12-27T06:13:01.218Z,101053.80
2018-12-27T06:15:50.507Z,101053.98
2018-12-27T06:18:20.906Z,101051.99
2018-12-27T06:20:51.218Z,101070.02
2018-12-27T06:26:17.834Z,101072.23
2018-12-27T06:28:48.142Z,101071.34
2018-12-27T06:31:18.371Z,101079.52
2018-12-27T06:33:48.698Z,101070.39
2018-12-27T06:36:19.058Z,101074.35
2018-12-27T06:38:49.488Z,101081.27
2018-12-27T06:41:19.841Z,101084.16
2018-12-27T06:43:50.215Z,101077.95
2018-12-27T06:46:20.585Z,101096.84
2018-12-27T06:48:50.999Z,101087.14
2018-12-27T06:51:21.270Z,101093.85
2018-12-27T06:53:51.532Z,101084.96
2018-12-27T06:56:33.094Z,101087.87
2018-12-27T06:59:14.561Z,101092.71
2018-12-27T07:01:45.042Z,101087.41
2018-12-27T07:04:15.346Z,101097.30
2018-12-27T07:06:46.064Z,101101.90
2018-12-27T07:09:16.753Z,101096.59
2018-12-27T07:11:47.091Z,101108.78
2018-12-27T07:14:17.392Z,101106.16
2018-12-27T07:16:47.710Z,101122.81
2018-12-27T07:19:36.838Z,101123.39
2018-12-27T07:22:07.184Z,101115.63
2018-12-27T07:24:37.483Z,101122.05
2018-12-27T07:27:10.503Z,101114.92
2018-12-27T07:29:59.586Z,101118.41
2018-12-27T07:32:29.880Z,101117.69
2018-12-27T07:35:00.160Z,101125.77
2018-12-27T07:37:30.545Z,101123.80
2018-12-27T07:51:43.000Z,101139.62
2018-12-27T07:57:27.877Z,101140.73
2018-12-27T08:03:09.295Z,101150.00
2018-12-27T08:05:58.459Z,101156.96
2018-12-27T08:08:28.898Z,101155.37
2018-12-27T08:10:59.214Z,101156.67
2018-12-27T08:13:29.476Z,101153.86
2018-12-27T08:15:59.789Z,101163.73
2018-12-27T08:18:30.122Z,101159.75
2018-12-27T08:21:00.518Z,101158.45
2018-12-27T08:23:49.787Z,101162.14
2018-12-27T08:26:20.132Z,101146.91
2018-12-27T08:29:09.195Z,101146.20
2018-12-27T08:31:59.708Z,101157.49
2018-12-27T08:34:30.185Z,101156.89
2018-12-27T08:37:00.471Z,101154.47
2018-12-27T08:39:30.812Z,101160.98
2018-12-27T08:42:01.237Z,101163.13
2018-12-27T08:50:37.179Z,101155.25
2018-12-27T08:53:07.414Z,101159.30
2018-12-27T08:55:37.718Z,101154.61
2018-12-27T09:01:02.568Z,101161.28
2018-12-27T09:03:32.809Z,101164.23
2018-12-27T09:06:03.077Z,101159.24
2018-12-27T09:08:33.526Z,101153.53
2018-12-27T09:11:03.794Z,101143.91
2018-12-27T09:13:33.941Z,101143.91
2018-12-27T09:16:04.410Z,101136.02
2018-12-27T09:18:34.630Z,101138.05
2018-12-27T09:21:23.740Z,101144.84
2018-12-27T09:29:30.140Z,101132.53
2018-12-27T09:32:00.412Z,101135.70
2018-12-27T09:34:30.626Z,101132.06
2018-12-27T09:40:34.675Z,101136.52
2018-12-27T09:43:05.008Z,101134.53
2018-12-27T09:51:37.584Z,101123.24
2018-12-27T09:54:07.806Z,101122.92
2018-12-27T09:56:38.055Z,101114.17
2018-12-27T09:59:19.626Z,101114.67
2018-12-27T10:01:49.954Z,101116.82
2018-12-27T10:04:20.220Z,101115.02
2018-12-27T10:06:50.551Z,101111.95
2018-12-27T10:09:20.823Z,101112.08
2018-12-27T10:11:51.016Z,101109.66
2018-12-27T10:14:21.406Z,101115.58
2018-12-27T10:20:01.348Z,101117.38
2018-12-27T10:25:22.250Z,101113.67
2018-12-27T10:28:11.222Z,101115.02
2018-12-27T10:30:41.970Z,101119.78
2018-12-27T10:33:12.268Z,101115.00
2018-12-27T10:35:42.621Z,101119.70
2018-12-27T10:38:12.826Z,101114.61
2018-12-27T10:43:41.720Z,101123.79
2018-12-27T10:46:11.997Z,101110.27
2018-12-27T10:48:42.011Z,101110.83
2018-12-27T10:51:12.616Z,101109.55
2018-12-27T10:56:55.675Z,101107.55
2018-12-27T10:59:26.032Z,101107.61
2018-12-27T11:01:56.246Z,101113.56
2018-12-27T11:05:05.411Z,101104.09
2018-12-27T11:07:35.592Z,101100.99
2018-12-27T11:13:14.066Z,101105.65
2018-12-27T11:18:28.851Z,101114.27
2018-12-27T11:21:19.248Z,101114.67
2018-12-27T11:24:01.602Z,101112.42
2018-12-27T11:32:35.292Z,101120.20
2018-12-27T11:38:01.526Z,101121.23
2018-12-27T11:43:36.748Z,101122.67
2018-12-27T11:55:03.608Z,101124.66
2018-12-27T12:00:33.945Z,101126.81
2018-12-27T12:03:04.398Z,101130.55
2018-12-27T12:05:34.725Z,101126.00
2018-12-27T12:08:05.186Z,101125.55
2018-12-27T12:10:35.639Z,101118.95
2018-12-27T12:13:05.969Z,101122.44
2018-12-27T12:15:36.369Z,101122.54
2018-12-27T12:18:06.587Z,101117.92
2018-12-27T12:20:36.819Z,101122.98
2018-12-27T12:23:07.368Z,101125.72
2018-12-27T12:25:56.692Z,101129.89
2018-12-27T12:29:05.862Z,101130.55
2018-12-27T12:31:37.686Z,101126.95
2018-12-27T12:34:26.782Z,101131.50
2018-12-27T12:40:07.425Z,101130.75
2018-12-27T12:43:16.714Z,101135.05
2018-12-27T12:46:06.042Z,101128.80
2018-12-27T12:48:55.307Z,101140.86
2018-12-27T12:52:04.655Z,101139.32
2018-12-27T13:01:09.330Z,101154.76
2018-12-27T13:04:17.105Z,101148.98
2018-12-27T13:10:21.521Z,101153.59
2018-12-27T13:16:01.671Z,101152.67
2018-12-27T13:18:31.785Z,101157.36
2018-12-27T13:24:17.479Z,101161.48
2018-12-27T13:30:13.310Z,101163.39
2018-12-27T13:33:02.415Z,101163.45
2018-12-27T13:35:58.158Z,101162.25
2018-12-27T13:38:47.291Z,101167.42
2018-12-27T13:41:36.504Z,101171.51
2018-12-27T13:44:07.017Z,101172.20
2018-12-27T13:52:21.597Z,101180.16
2018-12-27T13:58:23.814Z,101178.19
2018-12-27T14:01:08.150Z,101183.19
2018-12-27T14:03:50.479Z,101182.58
2018-12-27T14:06:32.837Z,101177.53
2018-12-27T14:09:16.937Z,101175.79
2018-12-27T14:12:07.489Z,101176.52
2018-12-27T14:20:38.250Z,101182.00
2018-12-27T14:23:12.142Z,101187.66
2018-12-27T14:25:42.839Z,101186.23
2018-12-27T14:28:13.668Z,101185.71
2018-12-27T14:30:44.064Z,101187.12
2018-12-27T14:39:33.893Z,101195.64
2018-12-27T14:44:49.735Z,101204.27
2018-12-27T14:47:20.199Z,101201.04
2018-12-27T14:58:40.635Z,101214.27
2018-12-27T15:10:01.499Z,101215.00
2018-12-27T15:24:47.218Z,101230.43
2018-12-27T15:41:28.570Z,101240.55
2018-12-27T15:43:58.794Z,101242.02
2018-12-27T15:46:29.086Z,101241.62
2018-12-27T15:48:59.436Z,101244.84
2018-12-27T15:51:48.507Z,101243.20
2018-12-27T15:54:19.009Z,101248.22
2018-12-27T15:56:49.812Z,101247.63
2018-12-27T15:59:38.906Z,101251.69
2018-12-27T16:02:09.203Z,101251.67
2018-12-27T16:04:59.588Z,101257.45
2018-12-27T16:10:40.185Z,101269.39
2018-12-27T16:15:57.119Z,101271.30
2018-12-27T16:18:27.402Z,101269.08
2018-12-27T16:20:57.651Z,101270.91
2018-12-27T16:26:22.881Z,101270.59
2018-12-27T16:28:53.639Z,101266.56
2018-12-27T16:31:23.963Z,101270.57
2018-12-27T16:33:54.531Z,101269.39
2018-12-27T16:36:24.821Z,101273.32
2018-12-27T16:38:55.145Z,101274.77
2018-12-27T16:41:25.520Z,101282.16
2018-12-27T16:44:16.149Z,101277.59
2018-12-27T16:50:21.504Z,101272.33
2018-12-27T16:56:09.451Z,101274.23
2018-12-27T16:59:01.053Z,101276.50
2018-12-27T17:02:10.693Z,101280.47
2018-12-27T17:07:57.532Z,101278.42
2018-12-27T17:13:31.295Z,101271.63
2018-12-27T17:16:21.838Z,101277.80
2018-12-27T17:28:09.513Z,101279.62
2018-12-27T17:30:58.523Z,101284.18
2018-12-27T17:36:50.277Z,101279.67
2018-12-27T17:45:36.521Z,101277.09
2018-12-27T18:00:47.534Z,101274.30
2018-12-27T18:03:55.295Z,101276.84
2018-12-27T18:06:44.750Z,101277.03
2018-12-27T18:12:48.616Z,101280.38
2018-12-27T18:27:37.814Z,101296.30
2018-12-27T18:42:29.440Z,101290.55
2018-12-27T18:51:13.782Z,101273.83
2018-12-27T18:57:32.695Z,101270.04
2018-12-27T19:00:24.539Z,101267.41
2018-12-27T19:15:15.781Z,101280.29
2018-12-27T19:20:43.466Z,101286.22
2018-12-27T19:26:34.564Z,101286.46
2018-12-27T19:29:15.562Z,101291.78
2018-12-27T19:31:57.407Z,101291.44
2018-12-27T19:34:37.951Z,101295.04
2018-12-27T19:37:19.572Z,101303.60
2018-12-27T19:43:16.536Z,101295.92
2018-12-27T19:49:14.965Z,101296.02
2018-12-27T19:52:04.041Z,101293.08
2018-12-27T19:54:45.819Z,101299.67
2018-12-27T20:06:17.739Z,101288.52
2018-12-27T20:09:04.355Z,101289.77
2018-12-27T20:11:50.979Z,101289.81
2018-12-27T20:14:37.523Z,101286.70
2018-12-27T20:17:28.178Z,101285.69
2018-12-27T20:20:18.654Z,101277.27
2018-12-27T20:23:09.573Z,101278.76
2018-12-27T20:26:00.202Z,101274.45
2018-12-27T20:34:44.715Z,101290.81
2018-12-27T20:43:54.337Z,101289.33
2018-12-27T20:49:45.318Z,101284.36
2018-12-27T20:52:26.956Z,101278.22
2018-12-27T20:55:07.869Z,101284.36
2018-12-27T21:00:34.782Z,101279.23
2018-12-27T21:03:15.549Z,101272.50
2018-12-27T21:05:56.723Z,101271.69
2018-12-27T21:11:23.287Z,101259.28
2018-12-27T21:17:17.749Z,101256.42
2018-12-27T21:26:23.063Z,101250.75
2018-12-27T21:29:32.877Z,101242.58
2018-12-27T21:32:43.829Z,101239.65
2018-12-27T21:35:33.322Z,101245.74
2018-12-27T21:38:42.578Z,101242.94
2018-12-27T21:50:28.234Z,101235.75
2018-12-27T21:59:07.933Z,101227.66
2018-12-27T22:07:53.486Z,101223.74
2018-12-27T22:10:34.858Z,101230.16
2018-12-27T22:13:16.391Z,101216.27
2018-12-27T22:24:51.354Z,101209.11
2018-12-27T22:30:25.111Z,101195.50
2018-12-27T22:33:14.448Z,101200.19
2018-12-27T22:36:03.776Z,101197.34
2018-12-27T22:38:59.424Z,101195.31
2018-12-27T22:44:56.743Z,101193.33
2018-12-27T22:50:50.919Z,101195.52
2018-12-27T22:53:41.849Z,101187.54
2018-12-27T22:56:22.714Z,101183.16
2018-12-27T23:05:13.320Z,101184.14
2018-12-27T23:08:04.018Z,101182.89
2018-12-27T23:10:52.380Z,101192.00
2018-12-27T23:13:47.652Z,101191.68
2018-12-27T23:16:36.843Z,101187.03
2018-12-27T23:19:17.739Z,101182.19
2018-12-27T23:22:07.043Z,101179.25
2018-12-27T23:24:57.666Z,101176.20
2018-12-27T23:31:06.631Z,101176.59
2018-12-27T23:37:05.673Z,101171.36
2018-12-27T23:43:09.597Z,101162.87
2018-12-27T23:45:51.207Z,101169.75
2018-12-27T23:48:32.845Z,101165.46
2018-12-27T23:54:05.004Z,101164.17
2018-12-27T23:59:17.560Z,101164.52
